x

Montauk Point -23 Nm Ssw Of Montauk Point, Ny (44017) Wave Buoy

6:50pm - Fri 24th Feb 2017 All times are EST. -5 hours from GMT.

  • Sig Wave height 3.3ft
  • Swell Direction
  • Peak Period 10s
  • Average Period 6s
  • Wind
    11mph, 13mph gusts
  • Sea Temp 44°f
  • Air Temp 49°f
  • Sea Pressure 1013.9mb
  • Montauk Point -23 Nm Ssw Of Montauk Point, Ny
  • Montauk Point -23 Nm Ssw Of Montauk Point, Ny

More Historic Weather Station data

Upgrade to MSW Pro to gain access to the past 30 days of data for over 8000 Wavebouys and Weather Stations around the globe.

Join Pro

Comparision Forecast

View Surf forecast
   
Fri 02/24 6:50pm 3.5ft 10s 6s 11 13 mph 1013.9mb 44f 49f
5:50pm 2.5ft 11s 5s 11 13 mph 1013.9mb 44f 49f
4:50pm 3.5ft 10s 6s 13
mph
1013.8mb 44f 49f
3:50pm 3ft 11s 5s 11 13 mph 1013.8mb 44f 50f
2:50pm 3ft 11s 6s 11 13 mph 1014.1mb 44f 50f
1:50pm 3.5ft 10s 6s 9 11 mph 1014.4mb 45f 49f
12:50pm 3.5ft 11s 6s 4 7 mph 1015.1mb 44f 49f
11:50am 3.5ft 11s 6s  -  mph 1016.1mb 43f 49f
10:50am 4ft 11s 6s  -  mph 1016.3mb 43f 49f
9:50am 3.5ft 11s 6s  -  7 mph 1016.4mb 43f 49f
8:50am 3.5ft 11s 6s 9 13 mph 1015.8mb 43f 50f
7:50am 4ft 11s 6s 11 13 mph 1015.4mb 43f 49f
6:50am 4ft 11s 6s 11 13 mph 1015.1mb 43f 49f
5:50am 3.5ft 11s 5s 7 9 mph 1015.6mb 43f 48f
4:50am 3.5ft 11s 6s 11 16 mph 1014.9mb 43f 48f
3:50am 4ft 11s 5s  -  4 mph 1014.9mb 43f 47f
2:50am 4ft 11s 6s 2 7 mph 1014.7mb 43f 48f
1:50am 4ft 12s 5s 11 13 mph 1014.6mb 43f 48f
12:50am 4.5ft 11s 6s 11 13 mph 1014.3mb 43f 49f
Thu 02/23 11:50pm 4.5ft 12s 5s 13
mph
1014.4mb 44f 49f
10:50pm 4.5ft 12s 6s 13 16 mph 1013.7mb 46f 49f
9:50pm 3.5ft 10s 5s 7 11 mph 1014mb 46f 47f
8:50pm 3.5ft 11s 5s 7 9 mph 1013.7mb 46f 48f
7:50pm 4ft 11s 6s 11
mph
1013.2mb 46f 49f
6:50pm 4.5ft 10s 5s 13 18 mph 1012.7mb 46f 49f
5:50pm 3.5ft 10s 5s 16 18 mph 1011.7mb 46f 49f
4:50pm 3.5ft 11s 5s 16 18 mph 1011.1mb 46f 49f
3:50pm 3.5ft 10s 6s 16
mph
1010.8mb 46f 49f
2:50pm 3.5ft 11s 5s 13 16 mph 1010.9mb 46f 49f
1:50pm 3ft 10s 6s 13
mph
1011.1mb 46f 49f
12:50pm 3.5ft 11s 6s 9 11 mph 1011.6mb 45f 48f
11:50am 3ft 10s 6s 11
mph
1012.9mb 45f 48f
10:50am 3ft 11s 6s 11 13 mph 1013.6mb 45f 47f
9:50am 3.5ft 10s 6s 11 13 mph 1013.8mb 44f 46f
8:50am 3ft 9s 6s 9 11 mph 1013.7mb 44f 46f
7:50am 3ft 10s 7s 11 13 mph 1013.6mb 44f 45f
6:50am 3.5ft 11s 7s 9
mph
1013.1mb 44f 46f
5:50am 3ft 10s 7s 9
mph
1013.1mb 45f 45f
4:50am 3ft 10s 7s 2 7 mph 1012.9mb 46f 45f
3:50am 2.5ft 11s 7s 7 9 mph 1013mb 46f 45f
2:50am 3.5ft 11s 7s 4 9 mph 1012.8mb 46f 45f
1:50am 2.5ft 10s 7s  -  mph 1013.1mb 46f 46f
12:50am 3ft 11s 7s 4 7 mph 1012.7mb 46f 46f
Wed 02/22 11:50pm 3ft 11s 7s  -  mph 1013.3mb 45f 46f
10:50pm 2.5ft 11s 6s 4 7 mph 1013.4mb 45f 46f
9:50pm 2.5ft 10s 6s  -  mph 1013.8mb 44f 45f
8:50pm 3ft 11s 7s  -  mph 1014mb 44f 46f
7:50pm 3ft 11s 6s  -  mph 1014mb 45f 45f
6:50pm 2.5ft 11s 6s  -  mph 1014.2mb 45f 45f
5:50pm 2.5ft 11s 6s  -  mph 1014.2mb 45f 45f
4:50pm 2.5ft 10s 5s 4 7 mph 1013.8mb 45f 46f
3:50pm 2.5ft 11s 6s 9 11 mph 1013.7mb 46f 46f
2:50pm 2.5ft 11s 6s 4 7 mph 1013.8mb 46f 46f
1:50pm 2.5ft 12s 6s 7 9 mph 1014.8mb 46f 45f
12:50pm 2.5ft 12s 6s 9 11 mph 1015.6mb 46f 45f
11:50am 2.5ft 11s 6s 9
mph
1016.5mb 45f 45f
10:50am 3ft 12s 6s 9
mph
1017.5mb 45f 45f
9:50am 3ft 12s 6s 9 11 mph 1018mb 44f 45f
8:50am 3ft 12s 5s 9 11 mph 1018.1mb 44f 45f
7:50am 3ft 11s 5s 9 11 mph 1018.5mb 45f 45f
5:50am 3ft 7s 5s 13 16 mph 1018.2mb 46f 45f
4:50am 3ft 11s 5s 13 16 mph 1019mb 46f 45f
3:50am 3ft 4s 4s 13 16 mph 1019mb 46f 45f
2:50am 3ft 4s 4s 13 18 mph 1018.9mb 46f 45f
1:50am 3ft 8s 4s 16 18 mph 1019.4mb 46f 45f
12:50am 2.5ft 3s 4s 16 18 mph 1020.1mb 46f 44f
Tue 02/21 10:50pm 2.5ft 3s 4s 13 18 mph 1022.1mb 46f 43f
9:50pm 2ft 3s 4s 13 18 mph 1022.8mb 46f 43f
8:50pm 1.6ft 3s 4s 13 16 mph 1022.9mb 46f 43f
7:50pm 1.6ft 6s 4s 11 16 mph 1024mb 46f 42f
6:50pm 1.3ft 7s 4s 9 13 mph 1024.1mb 46f 42f
5:50pm 1.6ft 7s 5s 9 11 mph 1024.8mb 46f 41f
4:50pm 1.6ft 6s 4s 4 9 mph 1025.1mb 46f 41f
3:50pm 1.3ft 8s 4s 4 9 mph 1025.2mb 47f 41f
2:50pm 1.6ft 4s 4s  -  mph 1025.9mb 47f 41f
1:50pm 1.6ft 8s 4s  -  mph 1026.5mb 47f 41f
12:50pm 2ft 8s 4s  -  mph 1027.2mb 46f 40f
11:50am 2ft 5s 4s  -  mph 1028.5mb 45f 40f
10:50am 2ft 8s 4s  -  mph 1029.3mb 45f 40f
9:50am 2ft 4s 4s 4 9 mph 1028.9mb 45f 40f
8:50am 2.5ft 4s 4s 9 11 mph 1029mb 45f 39f
7:50am 2.5ft 4s 4s 9 11 mph 1028.9mb 45f 39f
6:50am 3ft 4s 4s 4 9 mph 1029.4mb 45f 38f
5:50am 3ft 5s 4s 11 13 mph 1028.7mb 45f 38f
4:50am 3.5ft 5s 4s 13 16 mph 1028.4mb 44f 38f
3:50am 3ft 4s 4s 16 18 mph 1027.9mb 44f 38f
2:50am 2.5ft 5s 4s 13 18 mph 1028.2mb 44f 39f
1:50am 2.5ft 6s 4s 13 16 mph 1027.8mb 44f 39f